Aviation Digital Data Service (ADDS)

Output produced by TAFs form (1806 UTC 26 September 2017)
found at http://aviationweather.gov/adds/tafs/
 
KRDG 261754Z VRB05KT 10SM FEW036 29/21 A2999 RMK AO2 SLP158 T02890211 10294 20200 58016
KRDG 261726Z 2618/2718 09004KT P6SM SCT045 
     FM270000 VRB03KT P6SM SCT250 
     FM270800 VRB03KT 4SM BR SCT250 
     FM271400 03004KT P6SM SCT035
       
KLNS 261753Z 10009KT 10SM CLR 28/21 A3000 RMK AO2 SLP157 T02780206 10283 20200 58015
KLNS 261736Z 2618/2718 07007KT P6SM SCT250 
     FM262100 05006KT P6SM FEW150 SCT250 
     FM271000 03005KT 3SM BR SCT006 
     FM271100 00000KT 3/4SM BR OVC005 
     FM271300 VRB02KT 4SM BR SCT005 
     FM271400 27004KT P6SM BKN035
       
KABE 261751Z VRB03KT 10SM CLR 30/19 A3000 RMK AO2 SLP155 T03000194 10306 20194 58019
KABE 261726Z 2618/2718 05006KT P6SM SCT045 
     FM270000 VRB03KT P6SM SCT250 
     TEMPO 2709/2713 4SM BR 
     FM271400 04006KT P6SM SCT035
       
KPNE 261754Z 10007KT 10SM CLR 28/19 A3002 RMK AO2 SLP163 T02780194 10278 20206 56017
KPNE 261726Z 2618/2718 07008KT P6SM BKN250 
     FM270900 03006KT P6SM BKN010 
     FM271500 04008KT P6SM SCT035